createdAt,value
2022-08-12T00:02:02.784Z,4.20
2022-08-12T00:04:51.926Z,4.47
2022-08-12T00:07:37.789Z,4.23
2022-08-12T00:10:24.296Z,5.40
2022-08-12T00:13:09.865Z,4.60
2022-08-12T00:15:56.361Z,4.37
2022-08-12T00:18:42.005Z,5.20
2022-08-12T00:21:31.259Z,5.20
2022-08-12T00:24:17.610Z,4.77
2022-08-12T00:27:04.970Z,4.80
2022-08-12T00:29:50.839Z,3.90
2022-08-12T00:32:36.693Z,4.50
2022-08-12T00:35:23.573Z,4.97
2022-08-12T00:38:17.059Z,5.70
2022-08-12T00:41:02.490Z,4.90
2022-08-12T00:43:30.648Z,6.13
2022-08-12T00:46:16.201Z,4.83
2022-08-12T00:48:44.181Z,4.77
2022-08-12T00:51:11.974Z,5.83
2022-08-12T00:53:41.236Z,4.10
2022-08-12T00:56:09.614Z,4.60
2022-08-12T00:58:39.343Z,4.50
2022-08-12T01:01:09.012Z,4.67
2022-08-12T01:03:56.195Z,5.00
2022-08-12T01:06:46.549Z,5.00
2022-08-12T01:09:39.214Z,4.77
2022-08-12T01:12:08.524Z,4.63
2022-08-12T01:14:37.941Z,5.73
2022-08-12T01:17:06.273Z,4.70
2022-08-12T01:19:34.659Z,4.43
2022-08-12T01:22:20.038Z,5.60
2022-08-12T01:24:59.087Z,5.70
2022-08-12T01:27:28.493Z,5.20
2022-08-12T01:29:58.565Z,5.57
2022-08-12T01:32:28.364Z,4.93
2022-08-12T01:35:03.241Z,5.63
2022-08-12T01:37:34.472Z,4.63
2022-08-12T01:40:34.535Z,5.20
2022-08-12T01:42:56.177Z,4.73
2022-08-12T01:45:25.315Z,5.00
2022-08-12T01:48:05.569Z,4.90
2022-08-12T01:50:43.120Z,5.40
2022-08-12T01:53:13.192Z,5.50
2022-08-12T01:55:43.815Z,5.47
2022-08-12T01:58:19.863Z,5.30
2022-08-12T02:00:59.014Z,5.07
2022-08-12T02:04:07.385Z,5.03
2022-08-12T02:07:01.456Z,5.07
2022-08-12T02:10:00.145Z,4.77
2022-08-12T02:12:49.201Z,4.60
2022-08-12T02:15:25.055Z,5.70
2022-08-12T02:18:12.286Z,4.80
2022-08-12T02:20:52.348Z,5.33
2022-08-12T02:23:24.273Z,4.73
2022-08-12T02:25:56.954Z,5.33
2022-08-12T02:28:26.586Z,5.90
2022-08-12T02:30:55.313Z,4.90
2022-08-12T02:33:23.980Z,5.57
2022-08-12T02:35:52.271Z,4.87
2022-08-12T02:38:22.681Z,4.63
2022-08-12T02:40:54.591Z,6.73
2022-08-12T02:43:34.628Z,4.90
2022-08-12T02:46:08.292Z,5.00
2022-08-12T02:48:47.020Z,6.00
2022-08-12T02:51:19.370Z,5.23
2022-08-12T02:54:04.591Z,5.80
2022-08-12T02:56:37.539Z,5.27
2022-08-12T02:59:12.121Z,5.20
2022-08-12T03:01:47.594Z,5.43
2022-08-12T03:04:26.525Z,5.03
2022-08-12T03:07:05.261Z,4.93
2022-08-12T03:10:03.540Z,5.30
2022-08-12T03:12:26.443Z,6.03
2022-08-12T03:15:05.985Z,5.70
2022-08-12T03:17:37.910Z,5.67
2022-08-12T03:20:10.203Z,6.33
2022-08-12T03:22:40.520Z,5.50
2022-08-12T03:25:17.089Z,5.43
2022-08-12T03:27:49.640Z,5.30
2022-08-12T03:30:20.285Z,4.90
2022-08-12T03:32:50.025Z,4.93
2022-08-12T03:35:41.185Z,4.90
2022-08-12T03:38:12.327Z,5.43
2022-08-12T03:41:08.486Z,5.20
2022-08-12T03:44:02.573Z,5.40
2022-08-12T03:46:52.202Z,5.80
2022-08-12T03:49:38.208Z,6.10
2022-08-12T03:52:24.668Z,5.60
2022-08-12T03:55:10.183Z,5.50
2022-08-12T03:57:55.745Z,6.17
2022-08-12T04:00:24.633Z,4.90
2022-08-12T04:03:01.701Z,5.63
2022-08-12T04:05:54.458Z,4.60
2022-08-12T04:08:22.493Z,5.43
2022-08-12T04:11:07.870Z,4.83
2022-08-12T04:13:35.646Z,5.20
2022-08-12T04:16:07.874Z,5.00
2022-08-12T04:18:38.614Z,5.47
2022-08-12T04:21:10.323Z,5.50
2022-08-12T04:23:39.191Z,4.80
2022-08-12T04:26:07.249Z,4.70
2022-08-12T04:28:35.363Z,5.17
2022-08-12T04:31:04.660Z,5.20
2022-08-12T04:33:32.668Z,5.70
2022-08-12T04:36:01.756Z,5.27
2022-08-12T04:38:31.271Z,4.40
2022-08-12T04:40:59.600Z,5.40
2022-08-12T04:43:54.605Z,5.20
2022-08-12T04:46:22.229Z,5.70
2022-08-12T04:48:51.200Z,4.40
2022-08-12T04:51:21.103Z,4.07
2022-08-12T04:53:49.940Z,4.37
2022-08-12T04:56:18.497Z,4.60
2022-08-12T04:58:52.080Z,4.63
2022-08-12T05:01:20.501Z,4.30
2022-08-12T05:03:51.413Z,4.50
2022-08-12T05:06:26.394Z,4.10
2022-08-12T05:08:55.192Z,5.13
2022-08-12T05:11:24.012Z,4.20
2022-08-12T05:13:56.925Z,3.97
2022-08-12T05:16:32.719Z,4.30
2022-08-12T05:19:03.875Z,3.90
2022-08-12T05:21:33.456Z,4.13
2022-08-12T05:24:01.400Z,4.17
2022-08-12T05:26:30.331Z,3.93
2022-08-12T05:28:58.423Z,3.60
2022-08-12T05:31:41.752Z,4.27
2022-08-12T05:34:15.504Z,4.27
2022-08-12T05:36:44.948Z,4.43
2022-08-12T05:39:12.799Z,4.03
2022-08-12T05:41:41.522Z,3.60
2022-08-12T05:44:12.643Z,3.87
2022-08-12T05:46:41.106Z,4.10
2022-08-12T05:49:10.095Z,3.60
2022-08-12T05:51:41.561Z,3.80
2022-08-12T05:54:12.270Z,4.67
2022-08-12T05:56:41.291Z,3.87
2022-08-12T05:59:11.044Z,3.87
2022-08-12T06:02:09.875Z,4.70
2022-08-12T06:04:27.799Z,4.27
2022-08-12T06:06:55.560Z,4.80
2022-08-12T06:09:26.322Z,5.10
2022-08-12T06:12:06.072Z,5.57
2022-08-12T06:14:37.038Z,4.63
2022-08-12T06:17:07.852Z,5.33
2022-08-12T06:20:28.252Z,5.80
2022-08-12T06:22:23.749Z,5.93
2022-08-12T06:24:53.817Z,4.77
2022-08-12T06:27:21.768Z,5.60
2022-08-12T06:30:08.103Z,5.60
2022-08-12T06:32:42.827Z,5.43
2022-08-12T06:35:26.021Z,5.10
2022-08-12T06:38:16.950Z,6.00
2022-08-12T06:41:04.760Z,5.43
2022-08-12T06:44:07.127Z,4.67
2022-08-12T06:46:22.056Z,4.57
2022-08-12T06:48:52.084Z,4.27
2022-08-12T06:51:20.625Z,3.73
2022-08-12T06:53:48.394Z,4.00
2022-08-12T06:56:17.592Z,2.97
2022-08-12T06:58:45.432Z,3.50
2022-08-12T07:01:13.278Z,3.43
2022-08-12T07:03:41.279Z,3.40
2022-08-12T07:06:11.608Z,3.10
2022-08-12T07:08:40.275Z,3.20
2022-08-12T07:11:10.017Z,3.37
2022-08-12T07:14:12.630Z,3.30
2022-08-12T07:16:52.114Z,3.27
2022-08-12T07:19:20.849Z,3.60
2022-08-12T07:22:00.316Z,3.90
2022-08-12T07:24:30.624Z,3.97
2022-08-12T07:26:58.479Z,3.03
2022-08-12T07:29:57.949Z,2.60
2022-08-12T07:32:16.152Z,2.80
2022-08-12T07:34:44.550Z,2.50
2022-08-12T07:37:13.235Z,3.30
2022-08-12T07:39:49.913Z,2.87
2022-08-12T07:42:26.725Z,2.60
2022-08-12T07:44:56.241Z,2.50
2022-08-12T07:47:24.308Z,3.13
2022-08-12T07:50:03.209Z,2.23
2022-08-12T07:52:32.108Z,2.50
2022-08-12T07:55:00.834Z,2.30
2022-08-12T07:57:28.570Z,2.97
2022-08-12T07:59:57.653Z,2.60
2022-08-12T08:02:26.694Z,2.10
2022-08-12T08:04:57.686Z,2.43
2022-08-12T08:07:27.322Z,3.43
2022-08-12T08:09:59.201Z,2.43
2022-08-12T08:12:47.017Z,1.80
2022-08-12T08:15:17.194Z,2.53
2022-08-12T08:17:57.984Z,3.40
2022-08-12T08:20:28.708Z,2.00
2022-08-12T08:23:01.107Z,2.13
2022-08-12T08:25:35.893Z,1.87
2022-08-12T08:28:09.037Z,2.70
2022-08-12T08:30:39.969Z,2.23
2022-08-12T08:33:22.753Z,2.20
2022-08-12T08:35:54.389Z,2.80
2022-08-12T08:38:31.907Z,2.40
2022-08-12T08:42:17.225Z,2.33
2022-08-12T08:44:07.181Z,2.17
2022-08-12T08:46:37.655Z,2.00
2022-08-12T08:49:05.983Z,2.10
2022-08-12T08:51:34.136Z,2.50
2022-08-12T08:54:02.017Z,1.87
2022-08-12T08:56:30.183Z,1.90
2022-08-12T08:58:58.474Z,2.40
2022-08-12T09:01:26.499Z,2.60
2022-08-12T09:05:12.985Z,2.43
2022-08-12T09:06:56.619Z,2.55
2022-08-12T09:09:34.021Z,1.87
2022-08-12T09:12:30.752Z,1.80
2022-08-12T09:14:58.803Z,1.87
2022-08-12T09:17:26.880Z,2.23
2022-08-12T09:20:16.943Z,2.23
2022-08-12T09:22:49.462Z,2.37
2022-08-12T09:25:25.954Z,1.90
2022-08-12T09:28:04.489Z,2.30
2022-08-12T09:30:42.437Z,2.30
2022-08-12T09:33:18.525Z,2.47
2022-08-12T09:36:04.154Z,2.40
2022-08-12T09:38:35.230Z,2.13
2022-08-12T09:42:33.078Z,3.27
2022-08-12T09:44:38.369Z,2.00
2022-08-12T09:46:59.080Z,2.23
2022-08-12T09:49:28.214Z,1.70
2022-08-12T09:51:57.937Z,2.50
2022-08-12T09:54:33.026Z,2.00
2022-08-12T09:58:45.594Z,2.17
2022-08-12T10:00:15.817Z,2.37
2022-08-12T10:03:01.098Z,1.80
2022-08-12T10:06:27.535Z,2.00
2022-08-12T10:08:30.324Z,2.20
2022-08-12T10:11:20.523Z,1.90
2022-08-12T10:13:52.637Z,2.00
2022-08-12T10:16:23.057Z,1.80
2022-08-12T10:18:53.667Z,2.00
2022-08-12T10:21:23.872Z,1.90
2022-08-12T10:24:05.875Z,2.13
2022-08-12T10:26:52.679Z,1.63
2022-08-12T10:30:37.291Z,2.07
2022-08-12T10:32:44.605Z,2.27
2022-08-12T10:35:15.503Z,1.90
2022-08-12T10:38:35.824Z,1.80
2022-08-12T10:40:54.733Z,1.77
2022-08-12T10:43:55.218Z,2.10
2022-08-12T10:46:30.493Z,2.50
2022-08-12T10:49:07.007Z,2.70
2022-08-12T10:52:33.452Z,1.80
2022-08-12T10:54:40.360Z,2.13
2022-08-12T10:57:18.257Z,1.90
2022-08-12T11:00:30.675Z,2.20
2022-08-12T11:04:22.962Z,1.70
2022-08-12T11:07:09.742Z,1.47
2022-08-12T11:08:38.924Z,1.73
2022-08-12T11:11:13.451Z,2.17
2022-08-12T11:13:46.883Z,2.30
2022-08-12T11:16:22.011Z,2.77
2022-08-12T11:18:55.368Z,1.60
2022-08-12T11:21:56.862Z,1.60
2022-08-12T11:24:18.759Z,1.83
2022-08-12T11:26:59.881Z,1.63
2022-08-12T11:30:02.046Z,1.43
2022-08-12T11:32:17.994Z,2.00
2022-08-12T11:34:52.979Z,1.67
2022-08-12T11:37:25.609Z,1.77
2022-08-12T11:42:35.229Z,1.77
2022-08-12T11:45:05.564Z,1.53
2022-08-12T11:47:40.504Z,1.83
2022-08-12T11:50:11.842Z,1.57
2022-08-12T11:52:55.019Z,1.23
2022-08-12T11:55:24.151Z,1.47
2022-08-12T11:58:19.849Z,1.70
2022-08-12T12:03:45.603Z,1.40
2022-08-12T12:06:17.088Z,1.97
2022-08-12T12:08:50.589Z,1.40
2022-08-12T12:11:19.888Z,1.30
2022-08-12T12:14:08.892Z,1.53
2022-08-12T12:16:38.111Z,1.93
2022-08-12T12:19:06.302Z,1.20
2022-08-12T12:21:46.973Z,1.60
2022-08-12T12:24:21.220Z,1.10
2022-08-12T12:27:00.146Z,1.50
2022-08-12T12:30:19.045Z,1.43
2022-08-12T12:32:18.441Z,1.00
2022-08-12T12:35:14.767Z,1.27
2022-08-12T12:38:03.527Z,1.13
2022-08-12T12:40:30.027Z,1.23
2022-08-12T12:43:01.874Z,1.20
2022-08-12T12:45:35.559Z,1.07
2022-08-12T12:48:06.134Z,1.13
2022-08-12T12:50:42.820Z,0.93
2022-08-12T12:54:05.887Z,1.40
2022-08-12T12:56:11.055Z,1.40
2022-08-12T12:58:40.096Z,1.20
2022-08-12T13:01:28.013Z,0.90
2022-08-12T13:04:01.957Z,0.87
2022-08-12T13:06:31.850Z,0.87
2022-08-12T13:09:02.642Z,0.90
2022-08-12T13:11:39.108Z,0.97
2022-08-12T13:14:13.037Z,1.20
2022-08-12T13:16:56.383Z,1.40
2022-08-12T13:19:38.782Z,1.20
2022-08-12T13:22:28.003Z,0.90
2022-08-12T13:24:57.576Z,1.20
2022-08-12T13:27:35.181Z,1.23
2022-08-12T13:30:06.975Z,1.20
2022-08-12T13:32:39.453Z,1.77
2022-08-12T13:35:19.804Z,1.70
2022-08-12T13:37:59.249Z,1.07
2022-08-12T13:40:32.716Z,0.90
2022-08-12T13:43:01.913Z,1.10
2022-08-12T13:45:31.989Z,1.40
2022-08-12T13:48:02.035Z,0.87
2022-08-12T13:50:33.323Z,1.17
2022-08-12T13:53:16.669Z,0.83
2022-08-12T13:56:01.491Z,1.10
2022-08-12T13:58:33.023Z,1.10
2022-08-12T14:01:06.007Z,1.00
2022-08-12T14:03:51.078Z,1.33
2022-08-12T14:06:26.037Z,1.00
2022-08-12T14:09:25.983Z,1.33
2022-08-12T14:12:00.005Z,1.80
2022-08-12T14:14:31.252Z,0.90
2022-08-12T14:17:05.152Z,1.20
2022-08-12T14:19:37.658Z,1.33
2022-08-12T14:22:14.544Z,2.00
2022-08-12T14:24:43.372Z,1.10
2022-08-12T14:27:13.192Z,1.40
2022-08-12T14:30:05.548Z,1.03
2022-08-12T14:32:34.854Z,1.23
2022-08-12T14:35:03.083Z,1.43
2022-08-12T14:37:57.414Z,1.60
2022-08-12T14:40:27.987Z,1.20
2022-08-12T14:42:57.256Z,1.27
2022-08-12T14:45:44.390Z,1.40
2022-08-12T14:48:15.115Z,1.23
2022-08-12T14:51:02.736Z,1.40
2022-08-12T14:59:56.805Z,1.40
2022-08-12T15:02:19.540Z,1.37
2022-08-12T15:04:53.228Z,1.37
2022-08-12T15:07:33.357Z,1.40
2022-08-12T15:10:10.833Z,1.30
2022-08-12T15:12:40.901Z,1.70
2022-08-12T15:15:10.487Z,1.40
2022-08-12T15:17:39.265Z,1.73
2022-08-12T15:20:28.011Z,1.20
2022-08-12T15:22:56.526Z,1.30
2022-08-12T15:25:27.217Z,1.30
2022-08-12T15:28:05.387Z,1.50
2022-08-12T15:30:44.765Z,1.30
2022-08-12T15:33:15.315Z,1.03
2022-08-12T15:35:53.356Z,1.57
2022-08-12T15:38:24.868Z,1.10
2022-08-12T15:40:59.048Z,1.07
2022-08-12T15:43:51.013Z,1.93
2022-08-12T15:46:17.390Z,1.80
2022-08-12T15:48:46.807Z,1.40
2022-08-12T15:51:59.417Z,1.20
2022-08-12T15:54:31.004Z,1.10
2022-08-12T15:57:05.281Z,1.20
2022-08-12T16:00:02.329Z,1.40
2022-08-12T16:02:21.339Z,1.50
2022-08-12T16:04:50.420Z,1.37
2022-08-12T16:07:21.707Z,1.20
2022-08-12T16:09:56.798Z,1.40
2022-08-12T16:12:43.121Z,1.20
2022-08-12T16:15:13.185Z,1.20
2022-08-12T16:18:18.188Z,1.20
2022-08-12T16:20:33.708Z,1.20
2022-08-12T16:23:04.344Z,1.20
2022-08-12T16:26:05.202Z,1.43
2022-08-12T16:28:33.250Z,1.33
2022-08-12T16:31:01.889Z,1.67
2022-08-12T16:33:36.007Z,1.50
2022-08-12T16:36:25.505Z,2.13
2022-08-12T16:38:53.498Z,1.47
2022-08-12T16:41:23.001Z,1.53
2022-08-12T16:43:53.489Z,1.43
2022-08-12T16:46:32.563Z,1.33
2022-08-12T16:49:08.651Z,1.60
2022-08-12T16:51:40.651Z,1.60
2022-08-12T16:54:14.107Z,1.30
2022-08-12T16:56:55.320Z,1.47
2022-08-12T16:59:30.912Z,1.30
2022-08-12T17:02:00.558Z,1.30
2022-08-12T17:04:29.124Z,1.40
2022-08-12T17:06:56.936Z,1.20
2022-08-12T17:09:26.008Z,1.20
2022-08-12T17:12:02.123Z,1.40
2022-08-12T17:14:34.372Z,1.60
2022-08-12T17:17:02.699Z,1.20
2022-08-12T17:20:29.356Z,1.33
2022-08-12T17:22:30.071Z,1.60
2022-08-12T17:24:59.358Z,1.47
2022-08-12T17:27:32.129Z,1.57
2022-08-12T17:30:05.222Z,1.37
2022-08-12T17:32:35.801Z,1.60
2022-08-12T17:35:23.410Z,1.83
2022-08-12T17:38:00.144Z,2.13
2022-08-12T17:40:35.607Z,1.83
2022-08-12T17:43:51.938Z,1.47
2022-08-12T17:45:58.748Z,1.03
2022-08-12T17:48:35.121Z,1.30
2022-08-12T17:51:15.548Z,1.37
2022-08-12T17:54:05.658Z,1.37
2022-08-12T17:56:37.063Z,1.40
2022-08-12T17:59:07.406Z,1.50
2022-08-12T18:01:43.340Z,1.40
2022-08-12T18:04:21.407Z,1.17
2022-08-12T18:06:51.986Z,1.43
2022-08-12T18:09:21.307Z,1.53
2022-08-12T18:12:08.113Z,1.60
2022-08-12T18:14:38.108Z,1.47
2022-08-12T18:17:11.982Z,1.60
2022-08-12T18:20:05.626Z,1.70
2022-08-12T18:22:31.917Z,1.80
2022-08-12T18:25:03.995Z,1.60
2022-08-12T18:27:45.830Z,1.87
2022-08-12T18:30:29.359Z,1.63
2022-08-12T18:33:04.007Z,1.77
2022-08-12T18:35:46.300Z,1.70
2022-08-12T18:38:16.741Z,1.63
2022-08-12T18:41:20.919Z,1.40
2022-08-12T18:44:00.246Z,1.80
2022-08-12T18:46:48.913Z,1.70
2022-08-12T18:49:30.782Z,1.40
2022-08-12T18:52:05.291Z,1.67
2022-08-12T18:54:36.264Z,1.50
2022-08-12T18:57:16.642Z,2.03
2022-08-12T18:59:59.866Z,2.10
2022-08-12T19:02:33.834Z,1.90
2022-08-12T19:05:11.984Z,1.80
2022-08-12T19:07:57.713Z,1.63
2022-08-12T19:10:31.431Z,1.83
2022-08-12T19:13:24.294Z,1.80
2022-08-12T19:15:54.281Z,1.70
2022-08-12T19:18:29.890Z,2.00
2022-08-12T19:21:06.364Z,1.33
2022-08-12T19:23:35.933Z,2.10
2022-08-12T19:26:05.089Z,2.10
2022-08-12T19:28:36.344Z,2.00
2022-08-12T19:31:57.616Z,1.60
2022-08-12T19:34:56.373Z,1.63
2022-08-12T19:37:26.715Z,1.80
2022-08-12T19:40:09.601Z,1.63
2022-08-12T19:43:01.182Z,1.70
2022-08-12T19:45:41.892Z,1.57
2022-08-12T19:48:16.712Z,1.40
2022-08-12T19:50:50.258Z,1.70
2022-08-12T19:53:23.514Z,1.60
2022-08-12T19:55:53.712Z,1.70
2022-08-12T19:58:22.618Z,1.77
2022-08-12T20:00:56.697Z,1.83
2022-08-12T20:03:39.592Z,1.77
2022-08-12T20:06:15.653Z,1.60
2022-08-12T20:08:55.549Z,1.47
2022-08-12T20:12:09.056Z,1.77
2022-08-12T20:14:18.123Z,1.40
2022-08-12T20:16:53.039Z,1.60
2022-08-12T20:19:53.275Z,2.07
2022-08-12T20:22:24.934Z,2.50
2022-08-12T20:25:01.327Z,1.73
2022-08-12T20:28:05.428Z,1.70
2022-08-12T20:30:53.633Z,2.23
2022-08-12T20:33:18.741Z,1.50
2022-08-12T20:36:13.353Z,1.80
2022-08-12T20:38:40.259Z,1.60
2022-08-12T20:41:16.421Z,1.70
2022-08-12T20:43:50.679Z,1.93
2022-08-12T20:46:20.705Z,2.00
2022-08-12T20:48:54.796Z,1.60
2022-08-12T20:51:23.374Z,1.70
2022-08-12T20:53:58.015Z,1.70
2022-08-12T20:56:34.212Z,1.87
2022-08-12T20:59:05.406Z,2.20
2022-08-12T21:01:46.819Z,1.50
2022-08-12T21:04:35.552Z,1.97
2022-08-12T21:07:09.501Z,1.97
2022-08-12T21:09:41.498Z,1.77
2022-08-12T21:12:31.516Z,2.60
2022-08-12T21:15:16.921Z,3.13
2022-08-12T21:18:00.782Z,2.20
2022-08-12T21:20:37.982Z,2.03
2022-08-12T21:23:06.307Z,1.80
2022-08-12T21:25:44.687Z,2.00
2022-08-12T21:28:15.396Z,2.10
2022-08-12T21:31:11.504Z,1.93
2022-08-12T21:33:31.979Z,1.57
2022-08-12T21:36:22.248Z,2.17
2022-08-12T21:38:51.163Z,2.10
2022-08-12T21:41:20.154Z,1.90
2022-08-12T21:43:52.435Z,2.13
2022-08-12T21:46:34.477Z,1.83
2022-08-12T21:49:05.581Z,1.93
2022-08-12T21:51:49.038Z,2.70
2022-08-12T21:54:21.877Z,2.70
2022-08-12T21:56:52.949Z,2.10
2022-08-12T21:59:23.105Z,2.17
2022-08-12T22:01:51.436Z,2.00
2022-08-12T22:04:37.727Z,2.40
2022-08-12T22:07:07.032Z,2.00
2022-08-12T22:09:43.029Z,2.30
2022-08-12T22:12:29.372Z,2.10
2022-08-12T22:15:01.678Z,2.60
2022-08-12T22:17:50.321Z,1.97
2022-08-12T22:20:23.774Z,2.60
2022-08-12T22:23:00.237Z,3.20
2022-08-12T22:25:30.067Z,2.13
2022-08-12T22:28:17.946Z,2.33
2022-08-12T22:31:11.895Z,2.40
2022-08-12T22:33:54.011Z,2.70
2022-08-12T22:36:29.196Z,2.00
2022-08-12T22:38:58.357Z,2.30
2022-08-12T22:41:59.327Z,2.13
2022-08-12T22:44:54.134Z,2.60
2022-08-12T22:47:54.312Z,2.63
2022-08-12T22:50:27.181Z,2.57
2022-08-12T22:53:15.143Z,2.30
2022-08-12T22:56:00.341Z,2.33
2022-08-12T22:58:33.258Z,2.67
2022-08-12T23:01:01.794Z,2.57
2022-08-12T23:03:48.558Z,2.37
2022-08-12T23:06:19.699Z,2.47
2022-08-12T23:08:48.375Z,2.70
2022-08-12T23:11:17.803Z,2.60
2022-08-12T23:13:54.658Z,1.90
2022-08-12T23:16:29.525Z,2.80
2022-08-12T23:19:09.653Z,2.63
2022-08-12T23:22:04.307Z,2.80
2022-08-12T23:24:28.902Z,2.23
2022-08-12T23:27:15.861Z,2.87
2022-08-12T23:30:17.389Z,2.93
2022-08-12T23:32:37.137Z,2.83
2022-08-12T23:35:08.081Z,2.60
2022-08-12T23:37:47.485Z,3.20
2022-08-12T23:40:22.094Z,3.17
2022-08-12T23:42:50.404Z,2.73
2022-08-12T23:45:20.649Z,2.90
2022-08-12T23:47:58.939Z,3.33
2022-08-12T23:50:34.488Z,2.47
2022-08-12T23:53:05.815Z,2.60
2022-08-12T23:55:38.201Z,3.47
2022-08-12T23:58:22.440Z,3.00
